createdAt,value
2019-03-01T00:01:54.281Z,11.40
2019-03-01T00:04:54.514Z,11.36
2019-03-01T00:08:09.123Z,11.35
2019-03-01T00:11:16.945Z,11.28
2019-03-01T00:14:29.770Z,11.34
2019-03-01T00:17:34.324Z,11.43
2019-03-01T00:20:16.739Z,11.48
2019-03-01T00:23:12.192Z,11.53
2019-03-01T00:26:27.386Z,11.47
2019-03-01T00:29:21.506Z,11.48
2019-03-01T00:32:22.362Z,11.51
2019-03-01T00:35:31.387Z,11.52
2019-03-01T00:38:25.569Z,11.39
2019-03-01T00:41:16.272Z,11.40
2019-03-01T00:44:50.608Z,11.26
2019-03-01T00:47:16.035Z,11.35
2019-03-01T00:49:44.711Z,11.33
2019-03-01T00:52:11.553Z,11.37
2019-03-01T00:54:38.252Z,11.32
2019-03-01T00:57:05.643Z,11.31
2019-03-01T00:59:32.837Z,11.30
2019-03-01T01:01:59.571Z,11.32
2019-03-01T01:04:26.273Z,11.27
2019-03-01T01:06:53.074Z,11.28
2019-03-01T01:09:19.785Z,11.36
2019-03-01T01:11:48.829Z,11.36
2019-03-01T01:14:15.586Z,11.27
2019-03-01T01:16:42.288Z,11.32
2019-03-01T01:19:08.979Z,11.32
2019-03-01T01:21:35.793Z,11.40
2019-03-01T01:24:02.596Z,11.49
2019-03-01T01:26:29.409Z,11.48
2019-03-01T01:28:57.706Z,11.47
2019-03-01T01:31:24.437Z,11.36
2019-03-01T01:33:51.183Z,11.39
2019-03-01T01:36:17.903Z,11.46
2019-03-01T01:38:44.611Z,11.36
2019-03-01T01:41:11.380Z,11.26
2019-03-01T01:43:38.164Z,11.31
2019-03-01T01:46:05.332Z,11.32
2019-03-01T01:48:32.027Z,11.26
2019-03-01T01:50:59.009Z,11.24
2019-03-01T01:53:26.975Z,11.26
2019-03-01T01:55:53.740Z,11.18
2019-03-01T01:58:20.854Z,11.18
2019-03-01T02:00:47.565Z,11.21
2019-03-01T02:03:14.340Z,11.24
2019-03-01T02:05:43.058Z,11.22
2019-03-01T02:08:09.803Z,11.24
2019-03-01T02:10:36.490Z,11.23
2019-03-01T02:13:03.303Z,11.12
2019-03-01T02:15:33.015Z,11.17
2019-03-01T02:17:59.755Z,11.07
2019-03-01T02:20:26.512Z,11.07
2019-03-01T02:22:55.121Z,11.08
2019-03-01T02:25:21.854Z,11.13
2019-03-01T02:27:49.034Z,11.14
2019-03-01T02:30:19.570Z,11.09
2019-03-01T02:32:47.823Z,11.10
2019-03-01T02:35:19.296Z,11.11
2019-03-01T02:37:46.362Z,11.09
2019-03-01T02:40:13.119Z,11.02
2019-03-01T02:42:42.753Z,11.09
2019-03-01T02:45:11.292Z,11.09
2019-03-01T02:47:40.325Z,11.03
2019-03-01T02:50:07.901Z,11.08
2019-03-01T02:52:34.575Z,11.14
2019-03-01T02:55:01.395Z,11.12
2019-03-01T02:57:30.296Z,11.06
2019-03-01T02:59:58.620Z,11.10
2019-03-01T03:02:25.343Z,11.17
2019-03-01T03:04:52.138Z,11.05
2019-03-01T03:07:30.261Z,11.08
2019-03-01T03:09:57.014Z,11.11
2019-03-01T03:12:24.343Z,11.08
2019-03-01T03:14:51.055Z,11.02
2019-03-01T03:17:17.779Z,11.05
2019-03-01T03:19:44.639Z,11.07
2019-03-01T03:22:11.619Z,11.05
2019-03-01T03:24:38.371Z,11.04
2019-03-01T03:27:05.194Z,11.01
2019-03-01T03:29:31.908Z,10.97
2019-03-01T03:31:58.793Z,11.03
2019-03-01T03:34:25.462Z,11.05
2019-03-01T03:36:52.368Z,11.07
2019-03-01T03:39:19.065Z,11.06
2019-03-01T03:41:45.821Z,10.99
2019-03-01T03:44:12.580Z,11.02
2019-03-01T03:46:43.322Z,11.04
2019-03-01T03:49:10.035Z,11.10
2019-03-01T03:51:36.742Z,11.01
2019-03-01T03:54:03.490Z,11.06
2019-03-01T03:56:30.203Z,11.02
2019-03-01T03:58:56.914Z,11.05
2019-03-01T04:01:23.723Z,10.98
2019-03-01T04:03:51.684Z,11.04
2019-03-01T04:06:18.387Z,10.99
2019-03-01T04:08:45.099Z,10.87
2019-03-01T04:11:12.284Z,10.86
2019-03-01T04:13:41.274Z,10.83
2019-03-01T04:16:10.118Z,10.90
2019-03-01T04:18:36.807Z,10.89
2019-03-01T04:21:06.494Z,10.83
2019-03-01T04:23:35.748Z,10.83
2019-03-01T04:26:02.458Z,10.86
2019-03-01T04:28:29.170Z,10.91
2019-03-01T04:30:55.871Z,10.93
2019-03-01T04:33:22.708Z,10.85
2019-03-01T04:35:49.394Z,10.89
2019-03-01T04:38:18.993Z,10.93
2019-03-01T04:40:45.698Z,10.91
2019-03-01T04:43:12.434Z,10.97
2019-03-01T04:45:39.188Z,10.93
2019-03-01T04:48:06.032Z,10.91
2019-03-01T04:50:32.753Z,10.92
2019-03-01T04:52:59.562Z,10.90
2019-03-01T04:55:26.280Z,10.90
2019-03-01T04:57:53.050Z,10.85
2019-03-01T05:00:21.103Z,10.82
2019-03-01T05:02:47.839Z,10.84
2019-03-01T05:05:14.979Z,10.81
2019-03-01T05:07:41.765Z,10.84
2019-03-01T05:10:12.343Z,10.85
2019-03-01T05:12:39.078Z,10.87
2019-03-01T05:15:09.162Z,10.83
2019-03-01T05:17:35.884Z,10.84
2019-03-01T05:20:02.878Z,10.81
2019-03-01T05:22:29.630Z,10.76
2019-03-01T05:24:56.372Z,10.74
2019-03-01T05:27:23.086Z,10.82
2019-03-01T05:29:49.818Z,10.83
2019-03-01T05:32:16.814Z,10.85
2019-03-01T05:34:46.410Z,10.79
2019-03-01T05:37:13.453Z,10.75
2019-03-01T05:39:40.153Z,10.70
2019-03-01T05:42:07.143Z,10.60
2019-03-01T05:44:33.856Z,10.73
2019-03-01T05:47:00.640Z,10.64
2019-03-01T05:49:27.964Z,10.61
2019-03-01T05:51:54.697Z,10.57
2019-03-01T05:54:21.574Z,10.54
2019-03-01T05:56:48.434Z,10.52
2019-03-01T05:59:20.716Z,10.40
2019-03-01T06:01:55.948Z,10.24
2019-03-01T06:04:36.321Z,10.26
2019-03-01T06:07:59.983Z,10.16
2019-03-01T06:10:59.306Z,10.10
2019-03-01T06:14:05.050Z,10.15
2019-03-01T06:16:54.779Z,10.21
2019-03-01T06:20:09.989Z,10.19
2019-03-01T06:23:21.959Z,10.18
2019-03-01T06:26:14.917Z,10.12
2019-03-01T06:29:19.269Z,10.17
2019-03-01T06:32:38.995Z,10.19
2019-03-01T06:35:46.931Z,10.24
2019-03-01T06:39:04.703Z,10.23
2019-03-01T06:41:58.894Z,10.23
2019-03-01T06:45:11.375Z,10.19
2019-03-01T06:47:48.284Z,10.16
2019-03-01T06:50:19.715Z,10.17
2019-03-01T06:52:46.444Z,10.17
2019-03-01T06:55:40.253Z,10.19
2019-03-01T06:58:09.767Z,10.18
2019-03-01T07:00:49.862Z,10.09
2019-03-01T07:03:11.315Z,10.06
2019-03-01T07:05:38.009Z,10.04
2019-03-01T07:08:04.753Z,10.10
2019-03-01T07:10:31.990Z,10.07
2019-03-01T07:12:58.716Z,10.10
2019-03-01T07:15:25.516Z,10.13
2019-03-01T07:17:52.267Z,10.08
2019-03-01T07:20:19.299Z,10.07
2019-03-01T07:22:46.027Z,10.07
2019-03-01T07:25:15.217Z,10.04
2019-03-01T07:27:42.080Z,10.05
2019-03-01T07:30:08.820Z,9.91
2019-03-01T07:32:35.588Z,9.91
2019-03-01T07:35:02.303Z,9.89
2019-03-01T07:37:29.343Z,9.93
2019-03-01T07:39:58.076Z,9.96
2019-03-01T07:42:24.946Z,10.00
2019-03-01T07:44:51.803Z,9.99
2019-03-01T07:47:18.629Z,10.00
2019-03-01T07:49:45.369Z,9.94
2019-03-01T07:52:12.080Z,10.01
2019-03-01T07:54:40.713Z,10.06
2019-03-01T07:57:07.431Z,10.16
2019-03-01T07:59:38.111Z,10.19
2019-03-01T08:02:04.115Z,10.21
2019-03-01T08:04:31.628Z,10.11
2019-03-01T08:06:58.687Z,10.00
2019-03-01T08:09:25.439Z,10.13
2019-03-01T08:11:52.225Z,10.14
2019-03-01T08:14:19.363Z,10.19
2019-03-01T08:16:46.073Z,10.16
2019-03-01T08:19:16.147Z,10.20
2019-03-01T08:21:42.785Z,10.23
2019-03-01T08:24:11.187Z,10.33
2019-03-01T08:26:38.987Z,10.36
2019-03-01T08:29:05.712Z,10.50
2019-03-01T08:31:32.508Z,10.59
2019-03-01T08:33:59.221Z,10.49
2019-03-01T08:36:25.947Z,10.41
2019-03-01T08:38:52.680Z,10.39
2019-03-01T08:41:21.527Z,10.44
2019-03-01T08:43:48.876Z,10.46
2019-03-01T08:46:17.010Z,10.51
2019-03-01T08:48:43.970Z,10.50
2019-03-01T08:51:11.103Z,10.51
2019-03-01T08:53:40.715Z,10.56
2019-03-01T08:56:10.882Z,10.50
2019-03-01T08:58:37.680Z,10.47
2019-03-01T09:01:08.348Z,10.39
2019-03-01T09:03:41.561Z,10.44
2019-03-01T09:06:08.282Z,10.48
2019-03-01T09:08:34.983Z,10.60
2019-03-01T09:11:01.666Z,10.45
2019-03-01T09:13:28.459Z,10.52
2019-03-01T09:15:55.271Z,10.59
2019-03-01T09:18:22.142Z,10.63
2019-03-01T09:20:53.356Z,10.69
2019-03-01T09:23:25.273Z,10.67
2019-03-01T09:25:49.823Z,10.71
2019-03-01T09:28:16.639Z,10.87
2019-03-01T09:30:45.904Z,10.80
2019-03-01T09:33:17.271Z,10.99
2019-03-01T09:35:52.575Z,10.97
2019-03-01T09:38:19.274Z,10.95
2019-03-01T09:40:46.075Z,10.93
2019-03-01T09:43:13.042Z,10.88
2019-03-01T09:45:39.870Z,10.86
2019-03-01T09:48:12.160Z,10.92
2019-03-01T09:50:39.949Z,10.97
2019-03-01T09:53:06.673Z,10.88
2019-03-01T09:55:37.691Z,10.78
2019-03-01T09:58:05.049Z,10.86
2019-03-01T10:00:31.903Z,10.81
2019-03-01T10:02:59.027Z,10.78
2019-03-01T10:05:26.079Z,10.87
2019-03-01T10:07:52.797Z,11.02
2019-03-01T10:10:21.691Z,11.14
2019-03-01T10:12:48.505Z,11.19
2019-03-01T10:15:15.197Z,11.20
2019-03-01T10:17:41.962Z,11.22
2019-03-01T10:20:10.698Z,11.27
2019-03-01T10:22:37.498Z,11.48
2019-03-01T10:25:04.391Z,11.31
2019-03-01T10:27:31.215Z,11.36
2019-03-01T10:29:58.072Z,11.47
2019-03-01T10:32:24.893Z,11.55
2019-03-01T10:34:52.067Z,11.48
2019-03-01T10:37:18.952Z,11.43
2019-03-01T10:39:55.263Z,11.47
2019-03-01T10:42:17.301Z,11.46
2019-03-01T10:44:44.469Z,11.57
2019-03-01T10:47:11.216Z,11.55
2019-03-01T10:49:40.050Z,11.46
2019-03-01T10:52:07.733Z,11.51
2019-03-01T10:54:34.716Z,11.33
2019-03-01T10:57:01.633Z,11.27
2019-03-01T10:59:28.519Z,11.38
2019-03-01T11:01:57.078Z,11.40
2019-03-01T11:04:23.837Z,11.37
2019-03-01T11:06:50.554Z,11.41
2019-03-01T11:09:17.256Z,11.50
2019-03-01T11:11:47.224Z,11.59
2019-03-01T11:14:14.233Z,11.66
2019-03-01T11:16:40.972Z,11.80
2019-03-01T11:19:08.224Z,12.02
2019-03-01T11:21:34.964Z,12.00
2019-03-01T11:24:02.421Z,12.08
2019-03-01T11:26:29.606Z,12.22
2019-03-01T11:28:56.388Z,12.44
2019-03-01T11:31:23.135Z,12.50
2019-03-01T11:33:50.851Z,12.49
2019-03-01T11:36:17.652Z,12.44
2019-03-01T11:38:44.419Z,12.55
2019-03-01T11:41:11.335Z,12.56
2019-03-01T11:43:38.459Z,12.55
2019-03-01T11:46:05.196Z,12.56
2019-03-01T11:48:32.143Z,12.50
2019-03-01T11:50:58.867Z,12.61
2019-03-01T11:53:25.708Z,12.62
2019-03-01T11:55:55.220Z,12.68
2019-03-01T11:58:27.048Z,12.75
2019-03-01T12:00:56.424Z,12.73
2019-03-01T12:03:23.448Z,12.61
2019-03-01T12:05:56.601Z,12.61
2019-03-01T12:08:23.828Z,12.52
2019-03-01T12:10:50.656Z,12.61
2019-03-01T12:13:17.714Z,12.63
2019-03-01T12:15:44.555Z,12.57
2019-03-01T12:18:11.318Z,12.51
2019-03-01T12:20:38.110Z,12.48
2019-03-01T12:23:04.859Z,12.47
2019-03-01T12:25:31.582Z,12.47
2019-03-01T12:28:00.447Z,12.46
2019-03-01T12:30:27.195Z,12.49
2019-03-01T12:32:53.872Z,12.47
2019-03-01T12:35:22.657Z,12.30
2019-03-01T12:37:52.752Z,12.10
2019-03-01T12:40:24.159Z,11.99
2019-03-01T12:42:50.899Z,11.87
2019-03-01T12:45:17.732Z,11.82
2019-03-01T12:47:46.336Z,11.78
2019-03-01T12:50:13.195Z,11.79
2019-03-01T12:52:42.178Z,11.69
2019-03-01T12:55:16.218Z,11.66
2019-03-01T12:57:44.483Z,11.67
2019-03-01T13:00:17.043Z,11.78
2019-03-01T13:02:46.916Z,11.82
2019-03-01T13:05:14.171Z,11.80
2019-03-01T13:07:40.946Z,11.79
2019-03-01T13:10:14.127Z,11.88
2019-03-01T13:12:42.064Z,11.89
2019-03-01T13:15:10.605Z,12.00
2019-03-01T13:17:40.359Z,11.94
2019-03-01T13:20:10.082Z,11.87
2019-03-01T13:22:36.792Z,11.92
2019-03-01T13:25:03.858Z,11.80
2019-03-01T13:27:30.617Z,11.76
2019-03-01T13:29:58.597Z,11.85
2019-03-01T13:32:25.949Z,11.84
2019-03-01T13:35:07.395Z,11.90
2019-03-01T13:37:35.980Z,12.02
2019-03-01T13:40:03.490Z,12.12
2019-03-01T13:42:30.194Z,11.91
2019-03-01T13:44:56.942Z,12.07
2019-03-01T13:47:23.651Z,12.10
2019-03-01T13:49:50.328Z,12.11
2019-03-01T13:52:17.055Z,12.07
2019-03-01T13:54:45.399Z,12.00
2019-03-01T13:57:12.593Z,11.83
2019-03-01T13:59:40.382Z,11.72
2019-03-01T14:02:08.494Z,11.68
2019-03-01T14:04:40.309Z,11.69
2019-03-01T14:07:09.934Z,11.74
2019-03-01T14:09:36.791Z,11.67
2019-03-01T14:12:03.575Z,11.63
2019-03-01T14:14:30.275Z,11.56
2019-03-01T14:16:57.096Z,11.75
2019-03-01T14:19:24.019Z,11.68
2019-03-01T14:21:51.173Z,11.68
2019-03-01T14:24:17.927Z,11.60
2019-03-01T14:26:46.588Z,11.60
2019-03-01T14:29:15.980Z,11.65
2019-03-01T14:31:43.019Z,11.68
2019-03-01T14:34:11.600Z,11.69
2019-03-01T14:36:39.867Z,11.68
2019-03-01T14:39:15.854Z,11.66
2019-03-01T14:41:46.135Z,11.69
2019-03-01T14:44:13.153Z,11.75
2019-03-01T14:46:39.916Z,11.68
2019-03-01T14:49:06.737Z,11.57
2019-03-01T14:51:33.477Z,11.50
2019-03-01T14:54:01.592Z,11.60
2019-03-01T14:56:34.839Z,11.73
2019-03-01T14:59:15.706Z,11.78
2019-03-01T15:01:47.353Z,11.58
2019-03-01T15:04:14.104Z,11.57
2019-03-01T15:06:40.904Z,11.14
2019-03-01T15:09:07.804Z,11.02
2019-03-01T15:11:37.656Z,11.01
2019-03-01T15:14:12.137Z,11.13
2019-03-01T15:16:43.278Z,10.98
2019-03-01T15:19:11.000Z,10.97
2019-03-01T15:21:38.435Z,10.96
2019-03-01T15:24:05.181Z,10.96
2019-03-01T15:26:33.867Z,11.18
2019-03-01T15:29:00.675Z,11.21
2019-03-01T15:31:27.700Z,11.30
2019-03-01T15:33:54.599Z,11.28
2019-03-01T15:36:21.457Z,11.28
2019-03-01T15:38:48.797Z,11.36
2019-03-01T15:41:15.630Z,11.33
2019-03-01T15:43:42.494Z,11.33
2019-03-01T15:46:14.340Z,11.34
2019-03-01T15:48:40.190Z,11.30
2019-03-01T15:51:06.887Z,11.29
2019-03-01T15:53:33.745Z,11.32
2019-03-01T15:56:02.297Z,11.30
2019-03-01T15:58:32.983Z,11.34
2019-03-01T16:01:00.718Z,11.28
2019-03-01T16:03:27.437Z,11.19
2019-03-01T16:05:54.272Z,11.21
2019-03-01T16:08:21.107Z,11.31
2019-03-01T16:10:47.846Z,11.35
2019-03-01T16:13:17.029Z,11.32
2019-03-01T16:15:44.197Z,11.40
2019-03-01T16:18:11.032Z,11.49
2019-03-01T16:20:37.767Z,11.49
2019-03-01T16:23:04.994Z,11.43
2019-03-01T16:25:32.058Z,11.33
2019-03-01T16:27:58.879Z,11.23
2019-03-01T16:30:25.671Z,11.29
2019-03-01T16:32:53.108Z,11.25
2019-03-01T16:35:19.885Z,11.35
2019-03-01T16:37:48.654Z,11.28
2019-03-01T16:40:15.421Z,11.32
2019-03-01T16:42:42.140Z,11.28
2019-03-01T16:45:09.781Z,11.26
2019-03-01T16:47:38.305Z,11.20
2019-03-01T16:50:10.091Z,11.13
2019-03-01T16:52:42.745Z,11.21
2019-03-01T16:55:13.821Z,11.02
2019-03-01T16:57:40.564Z,11.03
2019-03-01T17:00:09.947Z,11.11
2019-03-01T17:02:38.655Z,11.22
2019-03-01T17:05:06.762Z,11.15
2019-03-01T17:07:34.749Z,11.09
2019-03-01T17:10:02.088Z,11.11
2019-03-01T17:12:28.852Z,11.03
2019-03-01T17:14:56.040Z,11.02
2019-03-01T17:17:25.633Z,11.00
2019-03-01T17:19:53.283Z,10.97
2019-03-01T17:22:23.159Z,10.98
2019-03-01T17:24:51.285Z,11.03
2019-03-01T17:27:18.997Z,11.10
2019-03-01T17:29:48.189Z,11.09
2019-03-01T17:32:14.989Z,11.07
2019-03-01T17:34:41.787Z,11.08
2019-03-01T17:37:08.528Z,11.06
2019-03-01T17:39:35.541Z,11.07
2019-03-01T17:42:02.259Z,11.05
2019-03-01T17:44:28.945Z,10.94
2019-03-01T17:46:55.697Z,10.95
2019-03-01T17:49:22.916Z,10.92
2019-03-01T17:51:49.642Z,10.89
2019-03-01T17:54:19.018Z,10.86
2019-03-01T17:56:45.059Z,10.95
2019-03-01T17:59:13.028Z,10.88
2019-03-01T18:01:40.342Z,11.00
2019-03-01T18:04:07.507Z,11.02
2019-03-01T18:06:37.209Z,10.95
2019-03-01T18:09:04.914Z,10.87
2019-03-01T18:11:44.494Z,10.82
2019-03-01T18:14:16.482Z,10.68
2019-03-01T18:16:43.559Z,10.58
2019-03-01T18:19:11.062Z,10.71
2019-03-01T18:21:37.814Z,10.72
2019-03-01T18:24:04.672Z,10.77
2019-03-01T18:26:31.413Z,10.73
2019-03-01T18:29:00.921Z,10.72
2019-03-01T18:31:27.850Z,10.76
2019-03-01T18:33:57.338Z,10.60
2019-03-01T18:36:24.223Z,10.63
2019-03-01T18:38:50.931Z,10.61
2019-03-01T18:41:17.787Z,10.67
2019-03-01T18:43:45.820Z,10.62
2019-03-01T18:46:14.612Z,10.71
2019-03-01T18:48:44.053Z,10.71
2019-03-01T18:51:12.023Z,10.52
2019-03-01T18:53:40.739Z,10.52
2019-03-01T18:56:07.500Z,10.46
2019-03-01T18:58:34.201Z,10.35
2019-03-01T19:01:01.247Z,10.41
2019-03-01T19:03:30.986Z,10.39
2019-03-01T19:05:57.700Z,10.36
2019-03-01T19:08:26.452Z,10.32
2019-03-01T19:10:54.429Z,10.34
2019-03-01T19:13:24.431Z,10.26
2019-03-01T19:15:54.322Z,10.20
2019-03-01T19:18:21.678Z,10.24
2019-03-01T19:20:49.313Z,10.15
2019-03-01T19:23:20.657Z,10.19
2019-03-01T19:25:47.320Z,10.27
2019-03-01T19:28:14.029Z,10.31
2019-03-01T19:30:40.765Z,10.32
2019-03-01T19:33:07.471Z,10.34
2019-03-01T19:35:35.058Z,10.34
2019-03-01T19:38:01.882Z,8.91
2019-03-01T19:40:28.610Z,10.34
2019-03-01T19:42:57.315Z,10.31
2019-03-01T19:45:24.234Z,10.40
2019-03-01T19:47:51.014Z,10.39
2019-03-01T19:50:17.870Z,10.38
2019-03-01T19:52:47.101Z,10.38
2019-03-01T19:55:13.423Z,10.37
2019-03-01T19:57:40.150Z,10.27
2019-03-01T20:00:12.209Z,10.28
2019-03-01T20:02:38.910Z,10.21
2019-03-01T20:05:07.530Z,10.18
2019-03-01T20:07:34.284Z,10.18
2019-03-01T20:10:01.374Z,10.26
2019-03-01T20:12:28.163Z,10.22
2019-03-01T20:14:54.833Z,10.15
2019-03-01T20:17:21.691Z,10.20
2019-03-01T20:19:49.179Z,10.06
2019-03-01T20:22:18.661Z,10.14
2019-03-01T20:24:46.348Z,10.08
2019-03-01T20:27:13.125Z,10.17
2019-03-01T20:29:39.866Z,10.09
2019-03-01T20:32:06.617Z,10.13
2019-03-01T20:34:37.970Z,9.96
2019-03-01T20:37:05.179Z,9.86
2019-03-01T20:39:34.447Z,9.98
2019-03-01T20:42:01.252Z,9.93
2019-03-01T20:44:27.963Z,9.91
2019-03-01T20:46:54.645Z,9.94
2019-03-01T20:49:21.585Z,9.91
2019-03-01T20:51:48.316Z,9.95
2019-03-01T20:54:15.265Z,9.92
2019-03-01T20:56:48.035Z,10.00
2019-03-01T20:59:15.379Z,10.03
2019-03-01T21:01:42.427Z,9.98
2019-03-01T21:04:09.146Z,10.00
2019-03-01T21:06:37.382Z,10.00
2019-03-01T21:09:07.006Z,9.90
2019-03-01T21:11:33.619Z,9.89
2019-03-01T21:14:00.341Z,9.85
2019-03-01T21:16:27.577Z,9.89
2019-03-01T21:18:54.293Z,9.84
2019-03-01T21:21:21.124Z,9.82
2019-03-01T21:23:51.010Z,9.84
2019-03-01T21:26:17.268Z,9.90
2019-03-01T21:28:44.193Z,9.87
2019-03-01T21:31:11.014Z,9.86
2019-03-01T21:33:37.761Z,9.82
2019-03-01T21:36:04.486Z,9.74
2019-03-01T21:38:31.454Z,9.69
2019-03-01T21:40:58.149Z,9.69
2019-03-01T21:43:30.604Z,9.62
2019-03-01T21:45:59.025Z,9.63
2019-03-01T21:48:26.578Z,9.74
2019-03-01T21:50:53.380Z,9.82
2019-03-01T21:53:20.122Z,9.73
2019-03-01T21:55:46.840Z,9.75
2019-03-01T21:58:13.705Z,9.73
2019-03-01T22:00:40.396Z,9.77
2019-03-01T22:03:07.494Z,9.84
2019-03-01T22:05:34.931Z,9.73
2019-03-01T22:08:01.654Z,9.57
2019-03-01T22:10:31.520Z,9.58
2019-03-01T22:13:00.476Z,9.70
2019-03-01T22:15:27.127Z,9.57
2019-03-01T22:17:54.165Z,9.59
2019-03-01T22:20:21.529Z,9.60
2019-03-01T22:22:49.608Z,9.58
2019-03-01T22:25:16.333Z,9.53
2019-03-01T22:27:43.069Z,9.63
2019-03-01T22:30:12.510Z,9.80
2019-03-01T22:32:42.355Z,9.81
2019-03-01T22:35:09.508Z,9.74
2019-03-01T22:37:38.456Z,9.77
2019-03-01T22:40:06.689Z,9.86
2019-03-01T22:42:33.555Z,9.94
2019-03-01T22:45:02.604Z,10.00
2019-03-01T22:47:32.486Z,9.88
2019-03-01T22:50:00.042Z,9.76
2019-03-01T22:52:30.426Z,9.75
2019-03-01T22:55:01.589Z,9.76
2019-03-01T22:57:26.749Z,9.74
2019-03-01T22:59:56.762Z,9.74
2019-03-01T23:02:26.227Z,9.66
2019-03-01T23:04:53.061Z,9.60
2019-03-01T23:07:23.546Z,9.66
2019-03-01T23:09:50.568Z,9.64
2019-03-01T23:12:17.269Z,9.65
2019-03-01T23:14:44.097Z,9.63
2019-03-01T23:17:10.799Z,9.53
2019-03-01T23:19:39.171Z,9.55
2019-03-01T23:22:07.635Z,9.52
2019-03-01T23:24:35.176Z,9.59
2019-03-01T23:27:02.437Z,9.55
2019-03-01T23:29:29.472Z,9.47
2019-03-01T23:31:56.139Z,9.44
2019-03-01T23:34:22.871Z,9.47
2019-03-01T23:36:49.559Z,9.48
2019-03-01T23:39:16.275Z,9.48
2019-03-01T23:41:43.482Z,9.56
2019-03-01T23:44:12.883Z,9.51
2019-03-01T23:46:39.846Z,9.59
2019-03-01T23:49:06.840Z,9.54
2019-03-01T23:51:33.547Z,9.47
2019-03-01T23:54:00.267Z,9.52
2019-03-01T23:56:29.748Z,9.43
2019-03-01T23:58:55.577Z,9.48
